createdAt,value
2022-11-05T06:36:50.839Z,6.20
2022-11-05T06:47:14.402Z,6.20
2022-11-05T06:52:16.810Z,6.10
2022-11-05T06:57:18.846Z,6.20
2022-11-05T07:02:20.679Z,6.10
2022-11-05T07:07:22.496Z,6.10
2022-11-05T07:12:24.254Z,6.10
2022-11-05T07:17:26.076Z,6.10
2022-11-05T07:22:27.828Z,6.10
2022-11-05T07:27:29.781Z,6.10
2022-11-05T07:32:31.560Z,6.10
2022-11-05T07:37:33.391Z,6.10
2022-11-05T07:42:35.397Z,6.10
2022-11-05T07:47:38.833Z,6.10
2022-11-05T07:52:40.647Z,6.10
2022-11-05T07:57:49.610Z,6.10
2022-11-05T08:03:07.131Z,6.10
2022-11-05T08:08:10.856Z,6.20
2022-11-05T08:13:13.416Z,6.20
2022-11-05T08:18:17.004Z,6.20
2022-11-05T08:23:18.804Z,6.30
2022-11-05T08:28:23.097Z,6.40
2022-11-05T08:33:25.624Z,6.40
2022-11-05T08:38:27.402Z,6.50
2022-11-05T08:43:29.187Z,6.60
2022-11-05T08:48:30.934Z,6.60
2022-11-05T08:53:32.835Z,6.70
2022-11-05T08:58:34.748Z,6.80
2022-11-05T09:03:36.575Z,6.90
2022-11-05T09:08:38.361Z,7.00
2022-11-05T09:13:40.375Z,7.10
2022-11-05T09:18:42.426Z,7.30
2022-11-05T09:23:45.072Z,7.40
2022-11-05T09:28:46.867Z,7.50
2022-11-05T09:33:49.088Z,7.70
2022-11-05T09:38:50.920Z,7.90
2022-11-05T09:43:58.734Z,8.10
2022-11-05T09:49:04.308Z,8.30
2022-11-05T09:54:08.354Z,8.50
2022-11-05T09:59:19.638Z,8.60
2022-11-05T10:04:24.237Z,8.80
2022-11-05T10:09:40.193Z,8.90
2022-11-05T10:14:47.135Z,9.00
2022-11-05T10:19:56.643Z,9.10
2022-11-05T10:24:59.701Z,9.20
2022-11-05T10:30:01.822Z,9.30
2022-11-05T10:35:06.866Z,9.40
2022-11-05T10:40:22.772Z,9.40
2022-11-05T10:45:37.689Z,9.50
2022-11-05T10:50:40.009Z,9.50
2022-11-05T10:55:44.759Z,9.60
2022-11-05T11:01:08.378Z,9.70
2022-11-05T11:06:29.708Z,9.80
2022-11-05T11:11:37.324Z,9.80
2022-11-05T11:16:44.158Z,9.80
2022-11-05T11:21:46.057Z,9.80
2022-11-05T11:26:47.915Z,9.90
2022-11-05T11:31:54.252Z,9.90
2022-11-05T11:37:07.869Z,10.00
2022-11-05T11:42:23.672Z,10.10
2022-11-05T11:47:27.259Z,10.10
2022-11-05T11:52:31.858Z,10.10
2022-11-05T11:57:52.375Z,10.20
2022-11-05T12:03:12.936Z,10.30
2022-11-05T12:08:14.825Z,10.30
2022-11-05T12:13:16.563Z,10.50
2022-11-05T12:18:46.046Z,10.60
2022-11-05T12:23:47.808Z,10.70
2022-11-05T12:29:20.919Z,10.90
2022-11-05T12:34:51.239Z,10.90
2022-11-05T12:40:23.537Z,11.00
2022-11-05T12:45:58.997Z,11.10
2022-11-05T12:51:02.293Z,11.10
2022-11-05T12:56:11.012Z,11.20
2022-11-05T13:01:18.447Z,11.30
2022-11-05T13:06:38.803Z,11.30
2022-11-05T13:11:53.924Z,11.30
2022-11-05T13:16:58.723Z,11.30
2022-11-05T13:22:09.593Z,11.40
2022-11-05T13:27:37.408Z,11.40
2022-11-05T13:32:42.415Z,11.40
2022-11-05T13:38:07.347Z,11.40
2022-11-05T13:43:29.948Z,11.40
2022-11-05T13:48:37.503Z,11.50
2022-11-05T13:53:58.079Z,11.40
2022-11-05T13:59:18.956Z,11.40
2022-11-05T14:04:27.815Z,11.40
2022-11-05T14:09:29.732Z,11.40
2022-11-05T14:14:45.062Z,11.40
2022-11-05T14:19:49.950Z,11.40
2022-11-05T14:24:51.811Z,11.40
2022-11-05T14:29:53.588Z,11.50
2022-11-05T14:35:21.287Z,11.40
2022-11-05T14:40:40.373Z,11.40
2022-11-05T14:45:54.040Z,11.40
2022-11-05T14:50:56.091Z,11.40
2022-11-05T14:56:02.809Z,11.40
2022-11-05T15:01:07.461Z,11.50
2022-11-05T15:06:34.002Z,11.50
2022-11-05T15:11:59.240Z,11.50
2022-11-05T15:17:14.403Z,11.50
2022-11-05T15:22:28.496Z,11.40
2022-11-05T15:27:40.602Z,11.40
2022-11-05T15:32:42.458Z,11.40
2022-11-05T15:37:52.557Z,11.40
2022-11-05T15:43:17.656Z,11.40
2022-11-05T15:48:19.968Z,11.40
2022-11-05T15:54:23.832Z,11.30
2022-11-05T15:59:19.181Z,11.30
2022-11-05T16:04:23.673Z,11.30
